sensor_id;sensor_type;location;lat;lon;timestamp;P1;durP1;ratioP1;P2;durP2;ratioP2
26163;SDS011;13914;48.178;11.716;2022-08-19T00:00:35;4.85;;;2.78;;
26163;SDS011;13914;48.178;11.716;2022-08-19T00:03:02;3.25;;;2.33;;
26163;SDS011;13914;48.178;11.716;2022-08-19T00:05:29;2.90;;;2.20;;
26163;SDS011;13914;48.178;11.716;2022-08-19T00:07:56;5.53;;;2.47;;
26163;SDS011;13914;48.178;11.716;2022-08-19T00:10:22;3.30;;;2.17;;
26163;SDS011;13914;48.178;11.716;2022-08-19T00:12:49;3.03;;;2.38;;
26163;SDS011;13914;48.178;11.716;2022-08-19T00:15:17;3.20;;;2.20;;
26163;SDS011;13914;48.178;11.716;2022-08-19T00:17:46;3.33;;;2.40;;
26163;SDS011;13914;48.178;11.716;2022-08-19T00:20:14;3.67;;;2.63;;
26163;SDS011;13914;48.178;11.716;2022-08-19T00:22:43;3.95;;;2.85;;
26163;SDS011;13914;48.178;11.716;2022-08-19T00:25:09;3.75;;;2.30;;
26163;SDS011;13914;48.178;11.716;2022-08-19T00:27:36;5.85;;;2.60;;
26163;SDS011;13914;48.178;11.716;2022-08-19T00:30:03;5.13;;;2.90;;
26163;SDS011;13914;48.178;11.716;2022-08-19T00:32:31;3.70;;;2.60;;
26163;SDS011;13914;48.178;11.716;2022-08-19T00:34:59;5.00;;;3.33;;
26163;SDS011;13914;48.178;11.716;2022-08-19T00:37:26;5.03;;;3.60;;
26163;SDS011;13914;48.178;11.716;2022-08-19T00:39:52;5.10;;;3.90;;
26163;SDS011;13914;48.178;11.716;2022-08-19T00:42:19;4.97;;;2.80;;
26163;SDS011;13914;48.178;11.716;2022-08-19T00:44:47;4.13;;;3.13;;
26163;SDS011;13914;48.178;11.716;2022-08-19T00:47:13;6.38;;;4.07;;
26163;SDS011;13914;48.178;11.716;2022-08-19T00:49:49;4.00;;;2.90;;
26163;SDS011;13914;48.178;11.716;2022-08-19T00:52:22;7.35;;;3.78;;
26163;SDS011;13914;48.178;11.716;2022-08-19T00:54:57;4.68;;;3.65;;
26163;SDS011;13914;48.178;11.716;2022-08-19T00:57:29;5.28;;;3.47;;
26163;SDS011;13914;48.178;11.716;2022-08-19T01:00:03;4.85;;;3.38;;
26163;SDS011;13914;48.178;11.716;2022-08-19T01:02:36;4.40;;;2.88;;
26163;SDS011;13914;48.178;11.716;2022-08-19T01:05:03;5.32;;;2.72;;
26163;SDS011;13914;48.178;11.716;2022-08-19T01:07:35;5.57;;;2.97;;
26163;SDS011;13914;48.178;11.716;2022-08-19T01:10:04;5.75;;;4.55;;
26163;SDS011;13914;48.178;11.716;2022-08-19T01:12:37;6.30;;;4.40;;
26163;SDS011;13914;48.178;11.716;2022-08-19T01:15:08;7.68;;;5.57;;
26163;SDS011;13914;48.178;11.716;2022-08-19T01:17:37;7.10;;;5.13;;
26163;SDS011;13914;48.178;11.716;2022-08-19T01:20:05;6.15;;;4.20;;
26163;SDS011;13914;48.178;11.716;2022-08-19T01:22:41;8.00;;;4.35;;
26163;SDS011;13914;48.178;11.716;2022-08-19T01:25:12;7.25;;;4.80;;
26163;SDS011;13914;48.178;11.716;2022-08-19T01:27:41;6.38;;;4.28;;
26163;SDS011;13914;48.178;11.716;2022-08-19T01:30:12;8.88;;;5.68;;
26163;SDS011;13914;48.178;11.716;2022-08-19T01:32:43;7.35;;;6.05;;
26163;SDS011;13914;48.178;11.716;2022-08-19T01:35:09;6.00;;;4.50;;
26163;SDS011;13914;48.178;11.716;2022-08-19T01:38:10;6.57;;;4.90;;
26163;SDS011;13914;48.178;11.716;2022-08-19T01:43:02;10.07;;;4.80;;
26163;SDS011;13914;48.178;11.716;2022-08-19T01:45:29;9.40;;;6.45;;
26163;SDS011;13914;48.178;11.716;2022-08-19T01:47:58;6.55;;;5.05;;
26163;SDS011;13914;48.178;11.716;2022-08-19T01:50:25;7.82;;;4.88;;
26163;SDS011;13914;48.178;11.716;2022-08-19T01:57:47;4.82;;;3.20;;
26163;SDS011;13914;48.178;11.716;2022-08-19T02:00:19;5.38;;;3.70;;
26163;SDS011;13914;48.178;11.716;2022-08-19T02:02:48;8.35;;;4.72;;
26163;SDS011;13914;48.178;11.716;2022-08-19T02:05:14;6.28;;;4.50;;
26163;SDS011;13914;48.178;11.716;2022-08-19T02:07:42;7.13;;;5.05;;
26163;SDS011;13914;48.178;11.716;2022-08-19T02:10:14;9.00;;;5.07;;
26163;SDS011;13914;48.178;11.716;2022-08-19T02:12:44;4.32;;;3.45;;
26163;SDS011;13914;48.178;11.716;2022-08-19T02:17:36;6.53;;;4.90;;
26163;SDS011;13914;48.178;11.716;2022-08-19T02:20:03;5.63;;;4.22;;
26163;SDS011;13914;48.178;11.716;2022-08-19T02:22:29;6.05;;;4.40;;
26163;SDS011;13914;48.178;11.716;2022-08-19T02:24:55;5.65;;;3.85;;
26163;SDS011;13914;48.178;11.716;2022-08-19T02:27:21;4.38;;;3.47;;
26163;SDS011;13914;48.178;11.716;2022-08-19T02:29:49;5.05;;;3.67;;
26163;SDS011;13914;48.178;11.716;2022-08-19T02:32:16;5.72;;;3.60;;
26163;SDS011;13914;48.178;11.716;2022-08-19T02:34:46;5.88;;;3.10;;
26163;SDS011;13914;48.178;11.716;2022-08-19T02:37:13;5.88;;;4.32;;
26163;SDS011;13914;48.178;11.716;2022-08-19T02:39:58;7.90;;;4.50;;
26163;SDS011;13914;48.178;11.716;2022-08-19T02:47:17;10.27;;;5.28;;
26163;SDS011;13914;48.178;11.716;2022-08-19T02:49:44;7.15;;;4.03;;
26163;SDS011;13914;48.178;11.716;2022-08-19T02:52:10;8.38;;;4.63;;
26163;SDS011;13914;48.178;11.716;2022-08-19T02:54:37;7.47;;;4.95;;
26163;SDS011;13914;48.178;11.716;2022-08-19T02:59:31;7.53;;;4.93;;
26163;SDS011;13914;48.178;11.716;2022-08-19T03:01:58;5.32;;;3.90;;
26163;SDS011;13914;48.178;11.716;2022-08-19T03:04:24;8.55;;;5.28;;
26163;SDS011;13914;48.178;11.716;2022-08-19T03:06:51;7.00;;;4.70;;
26163;SDS011;13914;48.178;11.716;2022-08-19T03:09:18;5.82;;;3.83;;
26163;SDS011;13914;48.178;11.716;2022-08-19T03:11:45;3.60;;;2.80;;
26163;SDS011;13914;48.178;11.716;2022-08-19T03:14:11;6.70;;;5.63;;
26163;SDS011;13914;48.178;11.716;2022-08-19T03:16:43;6.43;;;4.82;;
26163;SDS011;13914;48.178;11.716;2022-08-19T03:19:13;4.45;;;3.25;;
26163;SDS011;13914;48.178;11.716;2022-08-19T03:21:41;8.18;;;4.45;;
26163;SDS011;13914;48.178;11.716;2022-08-19T03:24:09;7.28;;;4.10;;
26163;SDS011;13914;48.178;11.716;2022-08-19T03:26:40;7.03;;;4.45;;
26163;SDS011;13914;48.178;11.716;2022-08-19T03:29:12;9.05;;;5.40;;
26163;SDS011;13914;48.178;11.716;2022-08-19T03:31:40;4.68;;;3.88;;
26163;SDS011;13914;48.178;11.716;2022-08-19T03:34:08;6.00;;;4.78;;
26163;SDS011;13914;48.178;11.716;2022-08-19T03:36:40;6.18;;;4.45;;
26163;SDS011;13914;48.178;11.716;2022-08-19T03:39:06;8.32;;;5.53;;
26163;SDS011;13914;48.178;11.716;2022-08-19T03:41:36;5.97;;;4.55;;
26163;SDS011;13914;48.178;11.716;2022-08-19T03:44:05;6.40;;;4.70;;
26163;SDS011;13914;48.178;11.716;2022-08-19T03:46:33;8.88;;;4.75;;
26163;SDS011;13914;48.178;11.716;2022-08-19T03:49:01;5.97;;;4.47;;
26163;SDS011;13914;48.178;11.716;2022-08-19T03:51:37;5.25;;;4.55;;
26163;SDS011;13914;48.178;11.716;2022-08-19T03:54:09;4.95;;;3.63;;
26163;SDS011;13914;48.178;11.716;2022-08-19T03:56:38;7.95;;;5.82;;
26163;SDS011;13914;48.178;11.716;2022-08-19T03:59:06;7.20;;;4.88;;
26163;SDS011;13914;48.178;11.716;2022-08-19T04:01:35;5.68;;;4.38;;
26163;SDS011;13914;48.178;11.716;2022-08-19T04:04:01;7.35;;;5.05;;
26163;SDS011;13914;48.178;11.716;2022-08-19T04:08:56;7.40;;;5.25;;
26163;SDS011;13914;48.178;11.716;2022-08-19T04:11:25;7.40;;;5.28;;
26163;SDS011;13914;48.178;11.716;2022-08-19T04:13:53;6.85;;;4.85;;
26163;SDS011;13914;48.178;11.716;2022-08-19T04:16:20;6.15;;;4.88;;
26163;SDS011;13914;48.178;11.716;2022-08-19T04:18:48;4.70;;;3.15;;
26163;SDS011;13914;48.178;11.716;2022-08-19T04:21:16;7.85;;;5.60;;
26163;SDS011;13914;48.178;11.716;2022-08-19T04:23:45;7.15;;;3.00;;
26163;SDS011;13914;48.178;11.716;2022-08-19T04:26:22;8.07;;;5.93;;
26163;SDS011;13914;48.178;11.716;2022-08-19T04:28:53;7.65;;;5.00;;
26163;SDS011;13914;48.178;11.716;2022-08-19T04:31:24;7.15;;;5.38;;
26163;SDS011;13914;48.178;11.716;2022-08-19T04:33:53;5.78;;;4.28;;
26163;SDS011;13914;48.178;11.716;2022-08-19T04:36:26;8.35;;;6.07;;
26163;SDS011;13914;48.178;11.716;2022-08-19T04:38:59;8.18;;;6.15;;
26163;SDS011;13914;48.178;11.716;2022-08-19T04:41:31;6.03;;;3.95;;
26163;SDS011;13914;48.178;11.716;2022-08-19T04:44:15;6.53;;;4.65;;
26163;SDS011;13914;48.178;11.716;2022-08-19T04:46:45;6.05;;;4.03;;
26163;SDS011;13914;48.178;11.716;2022-08-19T04:49:13;6.85;;;4.80;;
26163;SDS011;13914;48.178;11.716;2022-08-19T04:51:42;8.35;;;6.10;;
26163;SDS011;13914;48.178;11.716;2022-08-19T04:54:10;5.60;;;4.20;;
26163;SDS011;13914;48.178;11.716;2022-08-19T04:56:38;7.60;;;4.88;;
26163;SDS011;13914;48.178;11.716;2022-08-19T04:59:05;8.57;;;5.70;;
26163;SDS011;13914;48.178;11.716;2022-08-19T05:01:32;4.22;;;2.65;;
26163;SDS011;13914;48.178;11.716;2022-08-19T05:03:59;5.78;;;3.58;;
26163;SDS011;13914;48.178;11.716;2022-08-19T05:06:26;4.95;;;3.53;;
26163;SDS011;13914;48.178;11.716;2022-08-19T05:08:53;7.60;;;4.03;;
26163;SDS011;13914;48.178;11.716;2022-08-19T05:11:21;9.73;;;6.70;;
26163;SDS011;13914;48.178;11.716;2022-08-19T05:13:50;7.78;;;4.88;;
26163;SDS011;13914;48.178;11.716;2022-08-19T05:18:44;9.02;;;6.13;;
26163;SDS011;13914;48.178;11.716;2022-08-19T05:21:29;5.68;;;3.60;;
26163;SDS011;13914;48.178;11.716;2022-08-19T05:24:14;5.40;;;3.45;;
26163;SDS011;13914;48.178;11.716;2022-08-19T05:26:43;7.15;;;4.78;;
26163;SDS011;13914;48.178;11.716;2022-08-19T05:29:11;5.70;;;3.20;;
26163;SDS011;13914;48.178;11.716;2022-08-19T05:31:43;5.28;;;4.05;;
26163;SDS011;13914;48.178;11.716;2022-08-19T05:34:10;11.63;;;7.13;;
26163;SDS011;13914;48.178;11.716;2022-08-19T05:36:38;11.18;;;7.25;;
26163;SDS011;13914;48.178;11.716;2022-08-19T05:39:11;4.45;;;3.20;;
26163;SDS011;13914;48.178;11.716;2022-08-19T05:41:42;8.25;;;5.55;;
26163;SDS011;13914;48.178;11.716;2022-08-19T05:44:11;11.85;;;6.30;;
26163;SDS011;13914;48.178;11.716;2022-08-19T05:46:38;10.00;;;6.82;;
26163;SDS011;13914;48.178;11.716;2022-08-19T05:49:05;14.18;;;7.47;;
26163;SDS011;13914;48.178;11.716;2022-08-19T05:51:32;7.65;;;5.13;;
26163;SDS011;13914;48.178;11.716;2022-08-19T05:54:04;8.80;;;6.43;;
26163;SDS011;13914;48.178;11.716;2022-08-19T05:56:32;8.95;;;5.95;;
26163;SDS011;13914;48.178;11.716;2022-08-19T05:59:02;7.88;;;4.07;;
26163;SDS011;13914;48.178;11.716;2022-08-19T06:01:29;14.82;;;5.90;;
26163;SDS011;13914;48.178;11.716;2022-08-19T06:03:54;5.05;;;3.72;;
26163;SDS011;13914;48.178;11.716;2022-08-19T06:06:21;11.07;;;6.50;;
26163;SDS011;13914;48.178;11.716;2022-08-19T06:08:47;7.10;;;4.55;;
26163;SDS011;13914;48.178;11.716;2022-08-19T06:13:49;11.25;;;7.57;;
26163;SDS011;13914;48.178;11.716;2022-08-19T06:16:21;4.80;;;3.95;;
26163;SDS011;13914;48.178;11.716;2022-08-19T06:18:48;8.88;;;5.78;;
26163;SDS011;13914;48.178;11.716;2022-08-19T06:21:17;5.10;;;3.03;;
26163;SDS011;13914;48.178;11.716;2022-08-19T06:23:48;8.93;;;6.30;;
26163;SDS011;13914;48.178;11.716;2022-08-19T06:26:15;12.30;;;7.85;;
26163;SDS011;13914;48.178;11.716;2022-08-19T06:28:43;6.47;;;3.30;;
26163;SDS011;13914;48.178;11.716;2022-08-19T06:31:12;5.97;;;4.00;;
26163;SDS011;13914;48.178;11.716;2022-08-19T06:33:41;5.85;;;4.28;;
26163;SDS011;13914;48.178;11.716;2022-08-19T06:36:26;7.00;;;4.55;;
26163;SDS011;13914;48.178;11.716;2022-08-19T06:39:00;6.00;;;4.20;;
26163;SDS011;13914;48.178;11.716;2022-08-19T06:41:29;8.85;;;4.90;;
26163;SDS011;13914;48.178;11.716;2022-08-19T06:43:57;8.30;;;6.05;;
26163;SDS011;13914;48.178;11.716;2022-08-19T06:46:23;5.20;;;2.97;;
26163;SDS011;13914;48.178;11.716;2022-08-19T06:48:50;5.18;;;3.75;;
26163;SDS011;13914;48.178;11.716;2022-08-19T06:51:18;4.63;;;3.17;;
26163;SDS011;13914;48.178;11.716;2022-08-19T06:53:46;12.63;;;7.82;;
26163;SDS011;13914;48.178;11.716;2022-08-19T06:56:13;8.95;;;5.80;;
26163;SDS011;13914;48.178;11.716;2022-08-19T06:58:41;15.88;;;8.93;;
26163;SDS011;13914;48.178;11.716;2022-08-19T07:01:07;9.40;;;6.03;;
26163;SDS011;13914;48.178;11.716;2022-08-19T07:03:34;5.90;;;4.25;;
26163;SDS011;13914;48.178;11.716;2022-08-19T07:06:03;7.18;;;5.20;;
26163;SDS011;13914;48.178;11.716;2022-08-19T07:08:36;14.38;;;9.50;;
26163;SDS011;13914;48.178;11.716;2022-08-19T07:11:07;7.78;;;5.60;;
26163;SDS011;13914;48.178;11.716;2022-08-19T07:13:35;9.32;;;6.30;;
26163;SDS011;13914;48.178;11.716;2022-08-19T07:16:10;7.32;;;4.03;;
26163;SDS011;13914;48.178;11.716;2022-08-19T07:18:39;7.45;;;4.75;;
26163;SDS011;13914;48.178;11.716;2022-08-19T07:21:07;10.10;;;6.45;;
26163;SDS011;13914;48.178;11.716;2022-08-19T07:23:40;13.82;;;9.25;;
26163;SDS011;13914;48.178;11.716;2022-08-19T07:26:08;10.45;;;7.25;;
26163;SDS011;13914;48.178;11.716;2022-08-19T07:28:46;16.10;;;10.52;;
26163;SDS011;13914;48.178;11.716;2022-08-19T07:31:14;13.77;;;7.63;;
26163;SDS011;13914;48.178;11.716;2022-08-19T07:33:43;12.48;;;8.98;;
26163;SDS011;13914;48.178;11.716;2022-08-19T07:36:11;12.65;;;9.45;;
26163;SDS011;13914;48.178;11.716;2022-08-19T07:38:42;13.55;;;7.63;;
26163;SDS011;13914;48.178;11.716;2022-08-19T07:41:13;15.40;;;10.00;;
26163;SDS011;13914;48.178;11.716;2022-08-19T07:43:48;15.65;;;9.98;;
26163;SDS011;13914;48.178;11.716;2022-08-19T07:48:42;18.52;;;10.75;;
26163;SDS011;13914;48.178;11.716;2022-08-19T07:51:13;11.13;;;8.77;;
26163;SDS011;13914;48.178;11.716;2022-08-19T07:53:46;15.73;;;12.32;;
26163;SDS011;13914;48.178;11.716;2022-08-19T07:56:15;20.27;;;13.82;;
26163;SDS011;13914;48.178;11.716;2022-08-19T07:58:46;15.80;;;12.93;;
26163;SDS011;13914;48.178;11.716;2022-08-19T08:01:15;14.68;;;10.60;;
26163;SDS011;13914;48.178;11.716;2022-08-19T08:03:45;16.88;;;12.02;;
26163;SDS011;13914;48.178;11.716;2022-08-19T08:06:30;17.15;;;11.68;;
26163;SDS011;13914;48.178;11.716;2022-08-19T08:09:15;16.95;;;12.80;;
26163;SDS011;13914;48.178;11.716;2022-08-19T08:11:49;18.73;;;11.07;;
26163;SDS011;13914;48.178;11.716;2022-08-19T08:14:27;14.10;;;9.93;;
26163;SDS011;13914;48.178;11.716;2022-08-19T08:16:58;22.95;;;14.88;;
26163;SDS011;13914;48.178;11.716;2022-08-19T08:19:25;21.17;;;15.40;;
26163;SDS011;13914;48.178;11.716;2022-08-19T08:21:53;21.33;;;14.88;;
26163;SDS011;13914;48.178;11.716;2022-08-19T08:24:20;11.50;;;8.73;;
26163;SDS011;13914;48.178;11.716;2022-08-19T08:26:46;13.55;;;9.07;;
26163;SDS011;13914;48.178;11.716;2022-08-19T08:29:13;22.05;;;14.25;;
26163;SDS011;13914;48.178;11.716;2022-08-19T08:31:41;12.82;;;9.95;;
26163;SDS011;13914;48.178;11.716;2022-08-19T08:34:09;12.93;;;7.68;;
26163;SDS011;13914;48.178;11.716;2022-08-19T08:36:37;19.35;;;13.82;;
26163;SDS011;13914;48.178;11.716;2022-08-19T08:39:10;12.18;;;8.02;;
26163;SDS011;13914;48.178;11.716;2022-08-19T08:41:51;26.05;;;16.77;;
26163;SDS011;13914;48.178;11.716;2022-08-19T08:47:02;15.45;;;9.50;;
26163;SDS011;13914;48.178;11.716;2022-08-19T08:49:46;10.15;;;7.55;;
26163;SDS011;13914;48.178;11.716;2022-08-19T08:52:41;10.15;;;7.20;;
26163;SDS011;13914;48.178;11.716;2022-08-19T08:55:16;12.55;;;8.40;;
26163;SDS011;13914;48.178;11.716;2022-08-19T09:00:20;13.70;;;9.80;;
26163;SDS011;13914;48.178;11.716;2022-08-19T09:02:49;13.55;;;9.90;;
26163;SDS011;13914;48.178;11.716;2022-08-19T09:05:15;16.40;;;10.55;;
26163;SDS011;13914;48.178;11.716;2022-08-19T09:10:28;16.65;;;10.18;;
26163;SDS011;13914;48.178;11.716;2022-08-19T09:15:40;12.85;;;8.43;;
26163;SDS011;13914;48.178;11.716;2022-08-19T09:18:39;24.17;;;14.82;;
26163;SDS011;13914;48.178;11.716;2022-08-19T09:21:08;9.82;;;6.93;;
26163;SDS011;13914;48.178;11.716;2022-08-19T09:23:36;13.63;;;10.05;;
26163;SDS011;13914;48.178;11.716;2022-08-19T09:26:06;16.25;;;11.45;;
26163;SDS011;13914;48.178;11.716;2022-08-19T09:28:34;17.25;;;11.55;;
26163;SDS011;13914;48.178;11.716;2022-08-19T09:31:02;16.17;;;9.65;;
26163;SDS011;13914;48.178;11.716;2022-08-19T09:38:34;21.00;;;13.90;;
26163;SDS011;13914;48.178;11.716;2022-08-19T09:41:02;13.02;;;8.85;;
26163;SDS011;13914;48.178;11.716;2022-08-19T09:43:30;20.63;;;13.57;;
26163;SDS011;13914;48.178;11.716;2022-08-19T09:45:59;23.33;;;14.98;;
26163;SDS011;13914;48.178;11.716;2022-08-19T09:48:26;16.67;;;10.82;;
26163;SDS011;13914;48.178;11.716;2022-08-19T09:50:52;12.32;;;8.50;;
26163;SDS011;13914;48.178;11.716;2022-08-19T09:53:18;17.15;;;13.18;;
26163;SDS011;13914;48.178;11.716;2022-08-19T09:55:47;18.05;;;12.82;;
26163;SDS011;13914;48.178;11.716;2022-08-19T09:58:13;12.68;;;8.77;;
26163;SDS011;13914;48.178;11.716;2022-08-19T10:00:38;19.45;;;13.07;;
26163;SDS011;13914;48.178;11.716;2022-08-19T10:03:04;15.85;;;11.73;;
26163;SDS011;13914;48.178;11.716;2022-08-19T10:05:30;14.55;;;10.55;;
26163;SDS011;13914;48.178;11.716;2022-08-19T10:08:22;13.45;;;9.27;;
26163;SDS011;13914;48.178;11.716;2022-08-19T10:10:51;22.17;;;14.57;;
26163;SDS011;13914;48.178;11.716;2022-08-19T10:13:18;21.23;;;13.38;;
26163;SDS011;13914;48.178;11.716;2022-08-19T10:15:48;27.52;;;17.15;;
26163;SDS011;13914;48.178;11.716;2022-08-19T10:18:18;20.33;;;14.02;;
26163;SDS011;13914;48.178;11.716;2022-08-19T10:20:46;27.58;;;17.48;;
26163;SDS011;13914;48.178;11.716;2022-08-19T10:23:14;16.70;;;11.73;;
26163;SDS011;13914;48.178;11.716;2022-08-19T10:25:42;11.02;;;7.63;;
26163;SDS011;13914;48.178;11.716;2022-08-19T10:28:08;13.20;;;9.35;;
26163;SDS011;13914;48.178;11.716;2022-08-19T10:30:37;10.98;;;7.68;;
26163;SDS011;13914;48.178;11.716;2022-08-19T10:33:04;14.68;;;10.02;;
26163;SDS011;13914;48.178;11.716;2022-08-19T10:35:31;19.13;;;14.75;;
26163;SDS011;13914;48.178;11.716;2022-08-19T10:37:58;16.83;;;12.15;;
26163;SDS011;13914;48.178;11.716;2022-08-19T10:40:24;18.55;;;12.50;;
26163;SDS011;13914;48.178;11.716;2022-08-19T10:42:52;11.95;;;8.70;;
26163;SDS011;13914;48.178;11.716;2022-08-19T10:45:20;17.25;;;13.00;;
26163;SDS011;13914;48.178;11.716;2022-08-19T10:47:48;18.05;;;11.65;;
26163;SDS011;13914;48.178;11.716;2022-08-19T10:50:14;17.92;;;12.23;;
26163;SDS011;13914;48.178;11.716;2022-08-19T10:53:02;20.48;;;12.38;;
26163;SDS011;13914;48.178;11.716;2022-08-19T10:55:31;17.60;;;12.63;;
26163;SDS011;13914;48.178;11.716;2022-08-19T10:58:16;16.38;;;11.82;;
26163;SDS011;13914;48.178;11.716;2022-08-19T11:00:55;16.52;;;11.88;;
26163;SDS011;13914;48.178;11.716;2022-08-19T11:03:23;12.63;;;8.85;;
26163;SDS011;13914;48.178;11.716;2022-08-19T11:06:02;12.57;;;9.63;;
26163;SDS011;13914;48.178;11.716;2022-08-19T11:08:32;11.85;;;9.50;;
26163;SDS011;13914;48.178;11.716;2022-08-19T11:11:00;10.82;;;8.63;;
26163;SDS011;13914;48.178;11.716;2022-08-19T11:13:32;14.65;;;9.80;;
26163;SDS011;13914;48.178;11.716;2022-08-19T11:16:03;11.65;;;8.35;;
26163;SDS011;13914;48.178;11.716;2022-08-19T11:18:41;14.40;;;10.00;;
26163;SDS011;13914;48.178;11.716;2022-08-19T11:23:40;11.50;;;9.00;;
26163;SDS011;13914;48.178;11.716;2022-08-19T11:28:31;14.27;;;9.35;;
26163;SDS011;13914;48.178;11.716;2022-08-19T11:30:57;9.50;;;7.55;;
26163;SDS011;13914;48.178;11.716;2022-08-19T11:33:23;9.30;;;7.57;;
26163;SDS011;13914;48.178;11.716;2022-08-19T11:35:51;13.20;;;9.68;;
26163;SDS011;13914;48.178;11.716;2022-08-19T11:38:18;13.32;;;9.85;;
26163;SDS011;13914;48.178;11.716;2022-08-19T11:40:44;12.55;;;8.70;;
26163;SDS011;13914;48.178;11.716;2022-08-19T11:43:10;13.02;;;8.77;;
26163;SDS011;13914;48.178;11.716;2022-08-19T11:45:36;8.38;;;6.55;;
26163;SDS011;13914;48.178;11.716;2022-08-19T11:48:02;11.95;;;8.13;;
26163;SDS011;13914;48.178;11.716;2022-08-19T11:50:28;10.85;;;7.80;;
26163;SDS011;13914;48.178;11.716;2022-08-19T11:52:54;10.75;;;8.15;;
26163;SDS011;13914;48.178;11.716;2022-08-19T11:55:21;10.60;;;8.05;;
26163;SDS011;13914;48.178;11.716;2022-08-19T11:57:48;11.43;;;8.60;;
26163;SDS011;13914;48.178;11.716;2022-08-19T12:00:14;10.15;;;7.35;;
26163;SDS011;13914;48.178;11.716;2022-08-19T12:02:40;9.18;;;7.22;;
26163;SDS011;13914;48.178;11.716;2022-08-19T12:05:07;9.25;;;6.20;;
26163;SDS011;13914;48.178;11.716;2022-08-19T12:07:33;8.32;;;6.40;;
26163;SDS011;13914;48.178;11.716;2022-08-19T12:10:00;6.97;;;5.88;;
26163;SDS011;13914;48.178;11.716;2022-08-19T12:12:26;5.15;;;3.47;;
26163;SDS011;13914;48.178;11.716;2022-08-19T12:14:53;3.78;;;3.13;;
26163;SDS011;13914;48.178;11.716;2022-08-19T12:17:22;5.50;;;3.08;;
26163;SDS011;13914;48.178;11.716;2022-08-19T12:19:50;5.32;;;2.90;;
26163;SDS011;13914;48.178;11.716;2022-08-19T12:22:15;5.57;;;2.65;;
26163;SDS011;13914;48.178;11.716;2022-08-19T12:24:41;4.18;;;2.28;;
26163;SDS011;13914;48.178;11.716;2022-08-19T12:27:07;3.42;;;2.30;;
26163;SDS011;13914;48.178;11.716;2022-08-19T12:29:33;3.85;;;2.42;;
26163;SDS011;13914;48.178;11.716;2022-08-19T12:31:59;4.78;;;1.65;;
26163;SDS011;13914;48.178;11.716;2022-08-19T12:34:31;3.97;;;1.90;;
26163;SDS011;13914;48.178;11.716;2022-08-19T12:36:58;3.50;;;2.20;;
26163;SDS011;13914;48.178;11.716;2022-08-19T12:39:27;3.58;;;2.30;;
26163;SDS011;13914;48.178;11.716;2022-08-19T12:41:53;2.05;;;1.45;;
26163;SDS011;13914;48.178;11.716;2022-08-19T12:44:19;2.47;;;1.80;;
26163;SDS011;13914;48.178;11.716;2022-08-19T12:46:46;2.80;;;2.03;;
26163;SDS011;13914;48.178;11.716;2022-08-19T12:49:12;2.30;;;1.63;;
26163;SDS011;13914;48.178;11.716;2022-08-19T12:51:38;2.50;;;1.67;;
26163;SDS011;13914;48.178;11.716;2022-08-19T12:54:03;3.80;;;1.45;;
26163;SDS011;13914;48.178;11.716;2022-08-19T12:56:29;3.08;;;1.58;;
26163;SDS011;13914;48.178;11.716;2022-08-19T12:58:56;3.78;;;1.42;;
26163;SDS011;13914;48.178;11.716;2022-08-19T13:01:22;2.63;;;1.58;;
26163;SDS011;13914;48.178;11.716;2022-08-19T13:03:47;2.20;;;1.30;;
26163;SDS011;13914;48.178;11.716;2022-08-19T13:06:13;1.38;;;1.00;;
26163;SDS011;13914;48.178;11.716;2022-08-19T13:08:40;3.47;;;1.20;;
26163;SDS011;13914;48.178;11.716;2022-08-19T13:11:10;3.63;;;1.92;;
26163;SDS011;13914;48.178;11.716;2022-08-19T13:13:40;1.65;;;1.38;;
26163;SDS011;13914;48.178;11.716;2022-08-19T13:16:08;1.85;;;1.05;;
26163;SDS011;13914;48.178;11.716;2022-08-19T13:18:36;2.20;;;1.00;;
26163;SDS011;13914;48.178;11.716;2022-08-19T13:21:05;1.38;;;0.95;;
26163;SDS011;13914;48.178;11.716;2022-08-19T13:23:34;1.50;;;0.80;;
26163;SDS011;13914;48.178;11.716;2022-08-19T13:26:02;2.55;;;1.05;;
26163;SDS011;13914;48.178;11.716;2022-08-19T13:28:30;1.08;;;0.70;;
26163;SDS011;13914;48.178;11.716;2022-08-19T13:31:18;2.10;;;0.95;;
26163;SDS011;13914;48.178;11.716;2022-08-19T13:34:05;0.68;;;0.60;;
26163;SDS011;13914;48.178;11.716;2022-08-19T13:36:35;2.03;;;0.98;;
26163;SDS011;13914;48.178;11.716;2022-08-19T13:39:03;1.20;;;0.80;;
26163;SDS011;13914;48.178;11.716;2022-08-19T13:41:32;1.17;;;0.70;;
26163;SDS011;13914;48.178;11.716;2022-08-19T13:43:58;1.80;;;0.70;;
26163;SDS011;13914;48.178;11.716;2022-08-19T13:46:24;1.33;;;0.68;;
26163;SDS011;13914;48.178;11.716;2022-08-19T13:48:52;1.17;;;0.80;;
26163;SDS011;13914;48.178;11.716;2022-08-19T13:51:18;1.23;;;0.77;;
26163;SDS011;13914;48.178;11.716;2022-08-19T13:53:44;1.65;;;1.10;;
26163;SDS011;13914;48.178;11.716;2022-08-19T13:58:39;1.70;;;1.25;;
26163;SDS011;13914;48.178;11.716;2022-08-19T14:03:32;2.13;;;1.40;;
26163;SDS011;13914;48.178;11.716;2022-08-19T14:05:59;2.70;;;1.80;;
26163;SDS011;13914;48.178;11.716;2022-08-19T14:10:53;3.40;;;1.60;;
26163;SDS011;13914;48.178;11.716;2022-08-19T14:13:20;3.30;;;2.10;;
26163;SDS011;13914;48.178;11.716;2022-08-19T14:15:48;2.35;;;1.75;;
26163;SDS011;13914;48.178;11.716;2022-08-19T14:18:15;3.25;;;1.65;;
26163;SDS011;13914;48.178;11.716;2022-08-19T14:20:42;3.25;;;1.80;;
26163;SDS011;13914;48.178;11.716;2022-08-19T14:23:09;3.05;;;1.98;;
26163;SDS011;13914;48.178;11.716;2022-08-19T14:25:35;2.85;;;1.63;;
26163;SDS011;13914;48.178;11.716;2022-08-19T14:28:01;3.10;;;2.00;;
26163;SDS011;13914;48.178;11.716;2022-08-19T14:30:28;2.17;;;1.55;;
26163;SDS011;13914;48.178;11.716;2022-08-19T14:32:57;2.40;;;1.60;;
26163;SDS011;13914;48.178;11.716;2022-08-19T14:35:26;2.45;;;1.80;;
26163;SDS011;13914;48.178;11.716;2022-08-19T14:37:54;3.40;;;1.85;;
26163;SDS011;13914;48.178;11.716;2022-08-19T14:40:21;4.30;;;1.90;;
26163;SDS011;13914;48.178;11.716;2022-08-19T14:42:54;2.72;;;1.92;;
26163;SDS011;13914;48.178;11.716;2022-08-19T14:45:27;3.45;;;2.13;;
26163;SDS011;13914;48.178;11.716;2022-08-19T14:47:55;4.65;;;2.33;;
26163;SDS011;13914;48.178;11.716;2022-08-19T14:50:21;2.80;;;1.85;;
26163;SDS011;13914;48.178;11.716;2022-08-19T14:52:47;3.15;;;2.33;;
26163;SDS011;13914;48.178;11.716;2022-08-19T14:55:17;4.90;;;2.65;;
26163;SDS011;13914;48.178;11.716;2022-08-19T14:57:43;2.88;;;2.03;;
26163;SDS011;13914;48.178;11.716;2022-08-19T15:00:10;3.40;;;2.17;;
26163;SDS011;13914;48.178;11.716;2022-08-19T15:02:40;3.05;;;1.98;;
26163;SDS011;13914;48.178;11.716;2022-08-19T15:05:09;2.40;;;1.73;;
26163;SDS011;13914;48.178;11.716;2022-08-19T15:07:35;3.00;;;2.05;;
26163;SDS011;13914;48.178;11.716;2022-08-19T15:10:02;2.80;;;2.10;;
26163;SDS011;13914;48.178;11.716;2022-08-19T15:12:32;3.22;;;2.20;;
26163;SDS011;13914;48.178;11.716;2022-08-19T15:14:59;2.75;;;1.95;;
26163;SDS011;13914;48.178;11.716;2022-08-19T15:17:25;2.85;;;2.17;;
26163;SDS011;13914;48.178;11.716;2022-08-19T15:19:51;2.97;;;2.20;;
26163;SDS011;13914;48.178;11.716;2022-08-19T15:22:17;5.38;;;2.72;;
26163;SDS011;13914;48.178;11.716;2022-08-19T15:24:44;3.85;;;2.78;;
26163;SDS011;13914;48.178;11.716;2022-08-19T15:27:11;3.72;;;2.85;;
26163;SDS011;13914;48.178;11.716;2022-08-19T15:29:38;3.38;;;2.45;;
26163;SDS011;13914;48.178;11.716;2022-08-19T15:34:31;5.55;;;3.80;;
26163;SDS011;13914;48.178;11.716;2022-08-19T15:36:58;4.90;;;3.67;;